Aérodrome :
LOGIN :

S'inscrire | Disclaimer

   EN    FR    IT 

 










Légende :    VFR   VFR Marginal   IFR   IFR Intensif   IFR Très Intensif
Visi : 
Plafond : 
>= 8 km
>= 3000ft
5 à 8 km
1000 à 3000 ft
1500m à 5 km
500 à 1000 ft
800 à 1500m
200 à 500 ft
< 800m
< 200 ft
Symboles :   Orages  Brouillard  Fortes neiges  Fortes précipitations  Vent > 20 kt
SIGMETs :   Divers  Orages  Givrage  Turbulence  Onde Orograph.  Cendres Volcan.







- Altitude de l'aérodrome : 327 ft
- Code IATA : BHX
- Voir les cartes d'approche


EGBB - Birmingham

DERNIER METAR :
  • 260620Z VRB07KT 4500 BR OVC004 13/13 Q1028

METARs EXPIRÉS :
  • 260550Z 06007KT 010V080 4000 BR OVC004 13/13 Q1028
  • 260520Z 04008KT 320V060 3500 BR OVC004 13/13 Q1027
  • 260450Z 05008KT 5000 BR OVC004 13/13 Q1027
  • 260420Z 05009KT 6000 OVC004 13/13 Q1027
  • 260350Z 04007KT 9999 OVC005 13/13 Q1027

TAF TAF EGBB
Valide du 26 à 06h jusqu'au 27 à 06h UTC


260453Z 2606/2706 04008KT 9999 BKN006
TEMPO 2606/2608 4000 BR BKN004
TEMPO 2608/2613 8000 BKN012
BECMG 2613/2616 SCT016
PROB30
TEMPO 2620/2706 BKN009
ATIS : +44 121 780 0910
Pas de NOTAMs connus pour ce terrain.



MET'MAP, la Météo Aéronautique d'un coup d'oeil ! - Copyright ORBIFLY Décembre 2007 - Disclaimer

ORBIFLY MET'MAP TEAM :

Programmation & Développement : Alexandra Zaïnal
Conception & Développement : Baudouin d'Aumeries
Co-Programmation & Développement : Marc-Olivier Méhu
Soutien technique & logistique : Manuel Goepfert

Contact : metmap@orbifly.com




SOURCES & CREDITS :

   NOAA